Airfield :
LOGIN :

Register | Disclaimer

   EN    FR    IT 

 










Legend :    VFR   Marginal VFR   IFR   Intensive IFR   Very Intensive IFR
Visi :
Ceiling :
>= 8 km
>= 3000ft
5 to 8 km
1000 to 3000 ft
1500m to 5 km
500 to 1000 ft
800 to 1500m
200 to 500 ft
< 800m
< 200 ft
Symbols :   Thunderstorms  Fog  Heavy snow  Heavy precipitations  Wind > 20 kt
SIGMETs :     Misc.  Thunderstorms  Icing  Turbulence  Mountain Waves  Volcanic Ashes






- Airport Elevation : 157 ft
- IATA code : SXF


EDDB - Berlin Schönefeld

CURRENT METAR :
  • 250750Z 31014KT 290V350 9999 BKN024 SCT042 12/08 Q1026 TEMPO 31015G25KT

EXPIRED METARs :
  • 250720Z 30015KT 9999 BKN019 SCT042 12/08 Q1025 TEMPO 25015G25KT
  • 250650Z 30013KT 9999 SCT019 SCT037 12/09 Q1025 NOSIG
  • 250620Z 30013KT 9999 SCT019 BKN043 11/09 Q1025 NOSIG
  • 250550Z 29012KT 9999 -RA BKN017 12/09 Q1025 TEMPO BKN014
  • 250520Z 29010KT 9999 -RA BKN017 11/09 Q1025 TEMPO BKN014

TAF TAF EDDB
Valid from the 25 at 06:00 until the 26 at 06:00 UTC


250500Z 2506/2606 31011KT 9999 SCT020 BKN040
PROB40
TEMPO 2506/2509 4500 -SHRA BKN010TCU
BECMG 2517/2519 33005KT
TEMPO 2602/2606 BKN005
PROB30
TEMPO 2602/2605 2000 BR BKN003



MET'MAP, your aeronautical weather chart ! - Copyright ORBIFLY December 2007 - Disclaimer

ORBIFLY MET'MAP TEAM :

Programming & Development : Alexandra Zaïnal
Concept & original design : Baudouin d'Aumeries
Assistance for programming : Marc-Olivier Méhu
Technical & hardware support : Manuel Goepfert

Contact : metmap@orbifly.com




SOURCES & CREDITS :

   NOAA